Westlake Village, California
Current Conditions -  °F | °C
As of 8:55 AM on Friday 24 Oct 2014 (Local Time) from KCMA Reporting Station
Clear Clear  
Wind Chill: 66°   Ceiling: Unl
Heat Index: 66°   Visibility: 10mi
Dew Point: 40°   Wind: 0mph
Humidity: 38%   Direction: NA
Pressure: 29.99"   Gusts: NA
Location:  34.15°N, 118.81°W
Report Text: KCMA 241555Z 00000KT 10SM CLR 19/04 A2999 RMK AO2 SLP163 T01890044
Loading
Personal Weather Stations






























Interactive Weather Map
Tropical Storm Tracking
New forecast layout! Learn more

10-Day Weather Forecast

Advertisements
Track Severe Weather on mobile